sensor_id;sensor_type;location;lat;lon;timestamp;pressure;altitude;pressure_sealevel;temperature;humidity
73671;BME280;61968;48.178;11.566;2023-06-01T00:00:10;95830.50;;;18.74;29.72
73671;BME280;61968;48.178;11.566;2023-06-01T00:02:39;95834.84;;;18.70;29.86
73671;BME280;61968;48.178;11.566;2023-06-01T00:05:08;95833.22;;;18.69;29.92
73671;BME280;61968;48.178;11.566;2023-06-01T00:07:34;95834.59;;;18.66;29.64
73671;BME280;61968;48.178;11.566;2023-06-01T00:10:01;95830.63;;;18.58;29.55
73671;BME280;61968;48.178;11.566;2023-06-01T00:12:27;95833.88;;;18.55;29.96
73671;BME280;61968;48.178;11.566;2023-06-01T00:14:54;95831.41;;;18.59;29.89
73671;BME280;61968;48.178;11.566;2023-06-01T00:17:20;95833.34;;;18.53;29.84
73671;BME280;61968;48.178;11.566;2023-06-01T00:19:48;95839.81;;;18.47;30.13
73671;BME280;61968;48.178;11.566;2023-06-01T00:22:15;95837.94;;;18.48;29.87
73671;BME280;61968;48.178;11.566;2023-06-01T00:24:42;95840.09;;;18.46;30.29
73671;BME280;61968;48.178;11.566;2023-06-01T00:27:08;95832.88;;;18.41;30.03
73671;BME280;61968;48.178;11.566;2023-06-01T00:29:35;95838.28;;;18.36;30.24
73671;BME280;61968;48.178;11.566;2023-06-01T00:32:01;95838.00;;;18.38;30.34
73671;BME280;61968;48.178;11.566;2023-06-01T00:34:28;95831.59;;;18.33;30.00
73671;BME280;61968;48.178;11.566;2023-06-01T00:36:54;95834.53;;;18.32;30.01
73671;BME280;61968;48.178;11.566;2023-06-01T00:39:22;95827.59;;;18.31;30.10
73671;BME280;61968;48.178;11.566;2023-06-01T00:41:49;95833.75;;;18.31;30.19
73671;BME280;61968;48.178;11.566;2023-06-01T00:44:15;95823.03;;;18.31;30.21
73671;BME280;61968;48.178;11.566;2023-06-01T00:46:42;95825.75;;;18.26;30.32
73671;BME280;61968;48.178;11.566;2023-06-01T00:49:08;95829.25;;;18.27;30.48
73671;BME280;61968;48.178;11.566;2023-06-01T00:51:35;95823.91;;;18.27;30.16
73671;BME280;61968;48.178;11.566;2023-06-01T00:54:02;95827.38;;;18.27;30.12
73671;BME280;61968;48.178;11.566;2023-06-01T00:56:29;95820.47;;;18.16;30.58
73671;BME280;61968;48.178;11.566;2023-06-01T00:58:57;95820.47;;;18.16;30.43
73671;BME280;61968;48.178;11.566;2023-06-01T01:01:24;95822.88;;;18.12;30.67
73671;BME280;61968;48.178;11.566;2023-06-01T01:03:51;95824.78;;;18.07;30.82
73671;BME280;61968;48.178;11.566;2023-06-01T01:06:27;95818.63;;;18.06;30.61
73671;BME280;61968;48.178;11.566;2023-06-01T01:09:08;95825.84;;;18.06;30.67
73671;BME280;61968;48.178;11.566;2023-06-01T01:11:38;95828.53;;;18.06;31.08
73671;BME280;61968;48.178;11.566;2023-06-01T01:14:12;95816.75;;;18.02;30.78
73671;BME280;61968;48.178;11.566;2023-06-01T01:16:44;95820.78;;;17.99;30.65
73671;BME280;61968;48.178;11.566;2023-06-01T01:22:14;95811.22;;;17.88;31.35
73671;BME280;61968;48.178;11.566;2023-06-01T01:25:05;95814.69;;;17.88;31.14
73671;BME280;61968;48.178;11.566;2023-06-01T01:27:39;95819.50;;;17.86;30.98
73671;BME280;61968;48.178;11.566;2023-06-01T01:30:11;95821.94;;;17.83;30.99
73671;BME280;61968;48.178;11.566;2023-06-01T01:32:40;95809.91;;;17.80;31.13
73671;BME280;61968;48.178;11.566;2023-06-01T01:35:08;95812.34;;;17.77;31.03
73671;BME280;61968;48.178;11.566;2023-06-01T01:37:35;95813.13;;;17.77;31.34
73671;BME280;61968;48.178;11.566;2023-06-01T01:40:02;95812.34;;;17.72;31.20
73671;BME280;61968;48.178;11.566;2023-06-01T01:42:29;95814.53;;;17.64;31.16
73671;BME280;61968;48.178;11.566;2023-06-01T01:44:56;95809.16;;;17.70;31.11
73671;BME280;61968;48.178;11.566;2023-06-01T01:47:31;95823.09;;;17.66;31.12
73671;BME280;61968;48.178;11.566;2023-06-01T01:50:05;95823.09;;;17.61;31.18
73671;BME280;61968;48.178;11.566;2023-06-01T01:52:35;95816.66;;;17.62;31.25
73671;BME280;61968;48.178;11.566;2023-06-01T01:55:05;95819.09;;;17.64;31.11
73671;BME280;61968;48.178;11.566;2023-06-01T01:57:34;95820.19;;;17.48;31.54
73671;BME280;61968;48.178;11.566;2023-06-01T02:00:02;95819.41;;;17.47;31.61
73671;BME280;61968;48.178;11.566;2023-06-01T02:02:30;95820.75;;;17.39;31.49
73671;BME280;61968;48.178;11.566;2023-06-01T02:04:56;95815.94;;;17.31;31.83
73671;BME280;61968;48.178;11.566;2023-06-01T02:07:23;95816.19;;;17.35;31.83
73671;BME280;61968;48.178;11.566;2023-06-01T02:09:49;95818.34;;;17.43;31.80
73671;BME280;61968;48.178;11.566;2023-06-01T02:12:16;95818.06;;;17.39;31.76
73671;BME280;61968;48.178;11.566;2023-06-01T02:14:42;95817.28;;;17.39;31.58
73671;BME280;61968;48.178;11.566;2023-06-01T02:17:09;95815.16;;;17.31;31.49
73671;BME280;61968;48.178;11.566;2023-06-01T02:19:37;95810.34;;;17.28;31.67
73671;BME280;61968;48.178;11.566;2023-06-01T02:22:04;95808.72;;;17.27;31.61
73671;BME280;61968;48.178;11.566;2023-06-01T02:24:30;95819.41;;;17.32;31.57
73671;BME280;61968;48.178;11.566;2023-06-01T02:26:57;95813.53;;;17.30;31.79
73671;BME280;61968;48.178;11.566;2023-06-01T02:29:23;95808.22;;;17.19;31.80
73671;BME280;61968;48.178;11.566;2023-06-01T02:31:50;95818.38;;;17.17;31.88
73671;BME280;61968;48.178;11.566;2023-06-01T02:34:18;95818.91;;;17.14;31.88
73671;BME280;61968;48.178;11.566;2023-06-01T02:36:46;95816.22;;;17.14;32.04
73671;BME280;61968;48.178;11.566;2023-06-01T02:39:13;95817.56;;;17.17;32.14
73671;BME280;61968;48.178;11.566;2023-06-01T02:41:40;95816.22;;;17.14;32.08
73671;BME280;61968;48.178;11.566;2023-06-01T02:44:06;95811.97;;;17.13;31.95
73671;BME280;61968;48.178;11.566;2023-06-01T02:46:32;95810.38;;;17.12;31.91
73671;BME280;61968;48.178;11.566;2023-06-01T02:48:59;95813.59;;;17.09;31.92
73671;BME280;61968;48.178;11.566;2023-06-01T02:51:26;95812.25;;;17.07;31.98
73671;BME280;61968;48.178;11.566;2023-06-01T02:53:53;95805.84;;;16.97;32.21
73671;BME280;61968;48.178;11.566;2023-06-01T02:56:20;95813.31;;;16.95;32.33
73671;BME280;61968;48.178;11.566;2023-06-01T02:58:46;95812.25;;;17.02;32.02
73671;BME280;61968;48.178;11.566;2023-06-01T03:01:13;95805.31;;;17.00;32.00
73671;BME280;61968;48.178;11.566;2023-06-01T03:03:39;95802.38;;;17.02;31.91
73671;BME280;61968;48.178;11.566;2023-06-01T03:06:07;95808.25;;;16.99;32.16
73671;BME280;61968;48.178;11.566;2023-06-01T03:08:34;95805.59;;;16.94;32.27
73671;BME280;61968;48.178;11.566;2023-06-01T03:11:01;95809.84;;;16.90;32.17
73671;BME280;61968;48.178;11.566;2023-06-01T03:13:28;95807.47;;;16.88;32.40
73671;BME280;61968;48.178;11.566;2023-06-01T03:15:55;95809.34;;;16.88;32.39
73671;BME280;61968;48.178;11.566;2023-06-01T03:18:21;95812.28;;;16.91;32.34
73671;BME280;61968;48.178;11.566;2023-06-01T03:20:48;95814.94;;;16.91;32.26
73671;BME280;61968;48.178;11.566;2023-06-01T03:23:14;95817.06;;;16.89;32.30
73671;BME280;61968;48.178;11.566;2023-06-01T03:25:41;95814.13;;;16.86;32.24
73671;BME280;61968;48.178;11.566;2023-06-01T03:28:09;95817.06;;;16.84;32.47
73671;BME280;61968;48.178;11.566;2023-06-01T03:30:35;95817.06;;;16.84;32.25
73671;BME280;61968;48.178;11.566;2023-06-01T03:33:02;95817.59;;;16.81;32.39
73671;BME280;61968;48.178;11.566;2023-06-01T03:35:28;95814.41;;;16.79;32.37
73671;BME280;61968;48.178;11.566;2023-06-01T03:37:55;95808.81;;;16.75;32.50
73671;BME280;61968;48.178;11.566;2023-06-01T03:40:21;95818.66;;;16.75;32.33
73671;BME280;61968;48.178;11.566;2023-06-01T03:42:48;95814.38;;;16.69;32.22
73671;BME280;61968;48.178;11.566;2023-06-01T03:45:16;95813.06;;;16.61;32.47
73671;BME280;61968;48.178;11.566;2023-06-01T03:47:42;95817.84;;;16.64;32.68
73671;BME280;61968;48.178;11.566;2023-06-01T03:50:09;95815.19;;;16.64;32.56
73671;BME280;61968;48.178;11.566;2023-06-01T03:52:36;95815.97;;;16.65;32.49
73671;BME280;61968;48.178;11.566;2023-06-01T03:55:05;95815.19;;;16.59;32.49
73671;BME280;61968;48.178;11.566;2023-06-01T03:57:33;95813.06;;;16.61;32.67
73671;BME280;61968;48.178;11.566;2023-06-01T04:00:00;95821.59;;;16.63;32.47
73671;BME280;61968;48.178;11.566;2023-06-01T04:02:28;95817.06;;;16.64;32.55
73671;BME280;61968;48.178;11.566;2023-06-01T04:04:55;95821.59;;;16.63;32.52
73671;BME280;61968;48.178;11.566;2023-06-01T04:07:22;95820.25;;;16.66;32.47
73671;BME280;61968;48.178;11.566;2023-06-01T04:09:48;95822.94;;;16.61;32.43
73671;BME280;61968;48.178;11.566;2023-06-01T04:12:15;95821.06;;;16.61;32.56
73671;BME280;61968;48.178;11.566;2023-06-01T04:14:41;95821.31;;;16.65;32.27
73671;BME280;61968;48.178;11.566;2023-06-01T04:17:08;95820.78;;;16.63;32.34
73671;BME280;61968;48.178;11.566;2023-06-01T04:19:37;95820.25;;;16.61;32.20
73671;BME280;61968;48.178;11.566;2023-06-01T04:22:04;95826.13;;;16.63;32.28
73671;BME280;61968;48.178;11.566;2023-06-01T04:24:31;95826.94;;;16.63;32.37
73671;BME280;61968;48.178;11.566;2023-06-01T04:26:57;95824.78;;;16.65;32.10
73671;BME280;61968;48.178;11.566;2023-06-01T04:29:24;95824.78;;;16.65;32.41
73671;BME280;61968;48.178;11.566;2023-06-01T04:31:51;95821.59;;;16.63;32.42
73671;BME280;61968;48.178;11.566;2023-06-01T04:34:20;95826.41;;;16.66;32.46
73671;BME280;61968;48.178;11.566;2023-06-01T04:36:50;95823.75;;;16.66;32.22
73671;BME280;61968;48.178;11.566;2023-06-01T04:39:16;95820.00;;;16.67;32.32
73671;BME280;61968;48.178;11.566;2023-06-01T04:41:43;95820.78;;;16.68;32.40
73671;BME280;61968;48.178;11.566;2023-06-01T04:44:09;95820.56;;;16.69;32.56
73671;BME280;61968;48.178;11.566;2023-06-01T04:46:38;95823.47;;;16.68;32.57
73671;BME280;61968;48.178;11.566;2023-06-01T04:49:06;95823.50;;;16.73;32.19
73671;BME280;61968;48.178;11.566;2023-06-01T04:51:32;95825.88;;;16.74;32.44
73671;BME280;61968;48.178;11.566;2023-06-01T04:54:03;95830.69;;;16.83;32.26
73671;BME280;61968;48.178;11.566;2023-06-01T04:56:29;95834.44;;;16.82;32.09
73671;BME280;61968;48.178;11.566;2023-06-01T04:58:57;95829.63;;;16.73;32.33
73671;BME280;61968;48.178;11.566;2023-06-01T05:01:24;95836.56;;;16.80;32.17
73671;BME280;61968;48.178;11.566;2023-06-01T05:03:52;95826.44;;;16.76;32.20
73671;BME280;61968;48.178;11.566;2023-06-01T05:06:20;95821.63;;;16.84;32.17
73671;BME280;61968;48.178;11.566;2023-06-01T05:08:46;95830.97;;;16.86;31.91
73671;BME280;61968;48.178;11.566;2023-06-01T05:11:15;95828.84;;;16.88;32.29
73671;BME280;61968;48.178;11.566;2023-06-01T05:13:41;95830.72;;;16.88;32.21
73671;BME280;61968;48.178;11.566;2023-06-01T05:16:09;95827.75;;;16.84;32.51
73671;BME280;61968;48.178;11.566;2023-06-01T05:18:36;95830.16;;;16.81;32.60
73671;BME280;61968;48.178;11.566;2023-06-01T05:21:03;95832.28;;;16.84;32.81
73671;BME280;61968;48.178;11.566;2023-06-01T05:23:30;95830.16;;;16.91;32.58
73671;BME280;61968;48.178;11.566;2023-06-01T05:25:57;95832.28;;;16.99;32.08
73671;BME280;61968;48.178;11.566;2023-06-01T05:28:28;95834.44;;;16.92;32.14
73671;BME280;61968;48.178;11.566;2023-06-01T05:30:55;95833.09;;;16.94;32.39
73671;BME280;61968;48.178;11.566;2023-06-01T05:33:21;95833.66;;;16.96;32.53
73671;BME280;61968;48.178;11.566;2023-06-01T05:35:48;95836.81;;;16.98;32.48
73671;BME280;61968;48.178;11.566;2023-06-01T05:38:14;95834.41;;;17.02;32.44
73671;BME280;61968;48.178;11.566;2023-06-01T05:40:41;95835.78;;;16.99;32.64
73671;BME280;61968;48.178;11.566;2023-06-01T05:43:07;95839.75;;;17.02;32.56
73671;BME280;61968;48.178;11.566;2023-06-01T05:45:35;95840.31;;;17.09;32.40
73671;BME280;61968;48.178;11.566;2023-06-01T05:48:02;95835.47;;;17.11;32.12
73671;BME280;61968;48.178;11.566;2023-06-01T05:50:29;95834.97;;;17.09;32.07
73671;BME280;61968;48.178;11.566;2023-06-01T05:52:55;95836.56;;;17.10;31.92
73671;BME280;61968;48.178;11.566;2023-06-01T05:55:22;95828.81;;;17.04;31.95
73671;BME280;61968;48.178;11.566;2023-06-01T05:57:48;95831.75;;;17.07;32.26
73671;BME280;61968;48.178;11.566;2023-06-01T06:00:16;95837.91;;;16.97;32.31
73671;BME280;61968;48.178;11.566;2023-06-01T06:02:44;95838.16;;;17.01;32.10
73671;BME280;61968;48.178;11.566;2023-06-01T06:05:10;95834.41;;;17.12;32.18
73671;BME280;61968;48.178;11.566;2023-06-01T06:07:37;95834.13;;;17.24;32.03
73671;BME280;61968;48.178;11.566;2023-06-01T06:10:04;95832.81;;;17.21;31.82
73671;BME280;61968;48.178;11.566;2023-06-01T06:12:31;95841.31;;;17.23;31.74
73671;BME280;61968;48.178;11.566;2023-06-01T06:14:58;95840.78;;;17.37;31.64
73671;BME280;61968;48.178;11.566;2023-06-01T06:17:24;95838.13;;;17.27;31.68
73671;BME280;61968;48.178;11.566;2023-06-01T06:19:52;95844.56;;;17.15;32.03
73671;BME280;61968;48.178;11.566;2023-06-01T06:22:18;95833.84;;;17.31;31.75
73671;BME280;61968;48.178;11.566;2023-06-01T06:24:45;95838.91;;;17.37;31.75
73671;BME280;61968;48.178;11.566;2023-06-01T06:27:12;95843.47;;;17.37;31.92
73671;BME280;61968;48.178;11.566;2023-06-01T06:29:39;95843.19;;;17.33;32.16
73671;BME280;61968;48.178;11.566;2023-06-01T06:32:06;95848.81;;;17.32;32.11
73671;BME280;61968;48.178;11.566;2023-06-01T06:34:32;95847.22;;;17.46;31.96
73671;BME280;61968;48.178;11.566;2023-06-01T06:37:03;95846.16;;;17.42;32.21
73671;BME280;61968;48.178;11.566;2023-06-01T06:39:29;95834.09;;;17.50;32.15
73671;BME280;61968;48.178;11.566;2023-06-01T06:41:56;95846.66;;;17.54;32.01
73671;BME280;61968;48.178;11.566;2023-06-01T06:44:23;95841.81;;;17.56;32.34
73671;BME280;61968;48.178;11.566;2023-06-01T06:46:49;95845.03;;;17.58;32.14
73671;BME280;61968;48.178;11.566;2023-06-01T06:49:16;95840.22;;;17.55;32.01
73671;BME280;61968;48.178;11.566;2023-06-01T06:51:43;95836.47;;;17.56;32.00
73671;BME280;61968;48.178;11.566;2023-06-01T06:54:11;95843.66;;;17.71;31.67
73671;BME280;61968;48.178;11.566;2023-06-01T06:56:38;95842.84;;;17.71;31.84
73671;BME280;61968;48.178;11.566;2023-06-01T06:59:04;95846.06;;;17.67;31.98
73671;BME280;61968;48.178;11.566;2023-06-01T07:01:32;95846.88;;;17.68;32.38
73671;BME280;61968;48.178;11.566;2023-06-01T07:04:00;95839.09;;;17.77;32.05
73671;BME280;61968;48.178;11.566;2023-06-01T07:06:27;95844.63;;;17.96;31.07
73671;BME280;61968;48.178;11.566;2023-06-01T07:08:53;95840.09;;;17.91;31.30
73671;BME280;61968;48.178;11.566;2023-06-01T07:11:21;95838.47;;;17.95;31.89
73671;BME280;61968;48.178;11.566;2023-06-01T07:13:48;95841.16;;;17.90;31.84
73671;BME280;61968;48.178;11.566;2023-06-01T07:16:15;95840.66;;;17.88;31.68
73671;BME280;61968;48.178;11.566;2023-06-01T07:18:42;95840.59;;;17.98;31.82
73671;BME280;61968;48.178;11.566;2023-06-01T07:21:08;95840.59;;;17.98;32.00
73671;BME280;61968;48.178;11.566;2023-06-01T07:23:35;95842.19;;;17.99;31.91
73671;BME280;61968;48.178;11.566;2023-06-01T07:26:02;95843.50;;;18.07;32.11
73671;BME280;61968;48.178;11.566;2023-06-01T07:28:29;95840.03;;;18.06;31.75
73671;BME280;61968;48.178;11.566;2023-06-01T07:30:58;95845.13;;;18.03;32.05
73671;BME280;61968;48.178;11.566;2023-06-01T07:33:24;95841.06;;;18.16;32.06
73671;BME280;61968;48.178;11.566;2023-06-01T07:35:51;95836.16;;;18.33;31.77
73671;BME280;61968;48.178;11.566;2023-06-01T07:38:18;95838.03;;;18.32;32.07
73671;BME280;61968;48.178;11.566;2023-06-01T07:40:45;95836.75;;;18.20;32.04
73671;BME280;61968;48.178;11.566;2023-06-01T07:43:11;95839.41;;;18.25;31.98
73671;BME280;61968;48.178;11.566;2023-06-01T07:45:40;95839.09;;;18.31;31.71
73671;BME280;61968;48.178;11.566;2023-06-01T07:48:06;95838.75;;;18.48;31.87
73671;BME280;61968;48.178;11.566;2023-06-01T07:50:33;95841.34;;;18.58;31.32
73671;BME280;61968;48.178;11.566;2023-06-01T07:53:01;95837.53;;;18.65;31.38
73671;BME280;61968;48.178;11.566;2023-06-01T07:55:28;95834.53;;;18.71;31.14
73671;BME280;61968;48.178;11.566;2023-06-01T07:57:54;95831.06;;;18.71;31.61
73671;BME280;61968;48.178;11.566;2023-06-01T08:00:21;95837.31;;;18.61;31.53
73671;BME280;61968;48.178;11.566;2023-06-01T08:02:49;95835.88;;;18.74;31.48
73671;BME280;61968;48.178;11.566;2023-06-01T08:05:16;95834.50;;;18.76;31.33
73671;BME280;61968;48.178;11.566;2023-06-01T08:07:44;95833.16;;;18.79;30.94
73671;BME280;61968;48.178;11.566;2023-06-01T08:10:11;95830.19;;;18.80;31.11
73671;BME280;61968;48.178;11.566;2023-06-01T08:12:38;95833.06;;;18.94;31.12
73671;BME280;61968;48.178;11.566;2023-06-01T08:15:06;95833.84;;;18.95;31.63
73671;BME280;61968;48.178;11.566;2023-06-01T08:17:32;95829.59;;;18.94;31.60
73671;BME280;61968;48.178;11.566;2023-06-01T08:20:00;95836.25;;;18.96;31.91
73671;BME280;61968;48.178;11.566;2023-06-01T08:22:32;95831.53;;;18.83;32.04
73671;BME280;61968;48.178;11.566;2023-06-01T08:24:59;95833.16;;;18.84;31.78
73671;BME280;61968;48.178;11.566;2023-06-01T08:27:25;95837.75;;;19.08;31.28
73671;BME280;61968;48.178;11.566;2023-06-01T08:29:53;95829.00;;;19.26;30.92
73671;BME280;61968;48.178;11.566;2023-06-01T08:32:19;95827.81;;;19.37;30.99
73671;BME280;61968;48.178;11.566;2023-06-01T08:34:46;95827.81;;;19.37;31.67
73671;BME280;61968;48.178;11.566;2023-06-01T08:37:14;95822.91;;;19.44;31.54
73671;BME280;61968;48.178;11.566;2023-06-01T08:39:41;95825.31;;;19.51;31.45
73671;BME280;61968;48.178;11.566;2023-06-01T08:42:11;95828.44;;;19.58;31.52
73671;BME280;61968;48.178;11.566;2023-06-01T08:44:40;95828.38;;;19.63;31.40
73671;BME280;61968;48.178;11.566;2023-06-01T08:47:08;95830.84;;;19.60;31.07
73671;BME280;61968;48.178;11.566;2023-06-01T08:49:36;95830.19;;;19.68;30.80
73671;BME280;61968;48.178;11.566;2023-06-01T08:52:04;95825.13;;;19.66;31.22
73671;BME280;61968;48.178;11.566;2023-06-01T08:54:34;95829.78;;;19.80;30.89
73671;BME280;61968;48.178;11.566;2023-06-01T08:57:04;95821.91;;;19.88;30.81
73671;BME280;61968;48.178;11.566;2023-06-01T08:59:33;95833.53;;;20.03;30.83
73671;BME280;61968;48.178;11.566;2023-06-01T09:02:00;95826.53;;;20.02;30.81
73671;BME280;61968;48.178;11.566;2023-06-01T09:04:27;95828.59;;;20.10;30.56
73671;BME280;61968;48.178;11.566;2023-06-01T09:06:56;95830.69;;;20.13;30.38
73671;BME280;61968;48.178;11.566;2023-06-01T09:09:22;95831.69;;;20.22;30.47
73671;BME280;61968;48.178;11.566;2023-06-01T09:12:17;95829.50;;;20.24;29.99
73671;BME280;61968;48.178;11.566;2023-06-01T09:14:44;95826.03;;;20.24;29.92
73671;BME280;61968;48.178;11.566;2023-06-01T09:17:13;95828.13;;;20.27;29.95
73671;BME280;61968;48.178;11.566;2023-06-01T09:19:43;95826.97;;;20.33;28.89
73671;BME280;61968;48.178;11.566;2023-06-01T09:22:11;95830.16;;;20.35;29.38
73671;BME280;61968;48.178;11.566;2023-06-01T09:24:37;95826.59;;;20.39;29.64
73671;BME280;61968;48.178;11.566;2023-06-01T09:27:07;95829.16;;;20.31;29.43
73671;BME280;61968;48.178;11.566;2023-06-01T09:29:34;95837.13;;;20.36;29.33
73671;BME280;61968;48.178;11.566;2023-06-01T09:32:01;95822.69;;;20.51;29.76
73671;BME280;61968;48.178;11.566;2023-06-01T09:34:27;95823.31;;;20.61;29.93
73671;BME280;61968;48.178;11.566;2023-06-01T09:36:56;95828.41;;;20.63;29.94
73671;BME280;61968;48.178;11.566;2023-06-01T09:39:24;95812.94;;;20.55;28.71
73671;BME280;61968;48.178;11.566;2023-06-01T09:41:52;95819.63;;;20.57;28.79
73671;BME280;61968;48.178;11.566;2023-06-01T09:44:25;95825.28;;;20.56;28.79
73671;BME280;61968;48.178;11.566;2023-06-01T09:46:53;95819.31;;;20.59;28.86
73671;BME280;61968;48.178;11.566;2023-06-01T09:49:21;95819.19;;;20.69;27.81
73671;BME280;61968;48.178;11.566;2023-06-01T09:51:49;95817.44;;;20.78;26.67
73671;BME280;61968;48.178;11.566;2023-06-01T09:54:24;95819.34;;;20.78;26.05
73671;BME280;61968;48.178;11.566;2023-06-01T09:56:52;95819.81;;;20.80;26.67
73671;BME280;61968;48.178;11.566;2023-06-01T09:59:20;95810.50;;;20.91;26.61
73671;BME280;61968;48.178;11.566;2023-06-01T10:01:51;95809.53;;;21.01;27.02
73671;BME280;61968;48.178;11.566;2023-06-01T10:04:21;95798.50;;;21.02;26.74
73671;BME280;61968;48.178;11.566;2023-06-01T10:06:49;95798.78;;;21.01;26.50
73671;BME280;61968;48.178;11.566;2023-06-01T10:09:18;95797.00;;;21.10;26.60
73671;BME280;61968;48.178;11.566;2023-06-01T10:11:45;95795.41;;;21.09;27.02
73671;BME280;61968;48.178;11.566;2023-06-01T10:14:12;95797.78;;;21.11;27.01
73671;BME280;61968;48.178;11.566;2023-06-01T10:16:39;95800.41;;;21.16;27.27
73671;BME280;61968;48.178;11.566;2023-06-01T10:19:08;95798.50;;;21.16;28.29
73671;BME280;61968;48.178;11.566;2023-06-01T10:21:35;95792.84;;;21.18;27.21
73671;BME280;61968;48.178;11.566;2023-06-01T10:24:02;95787.88;;;21.11;26.69
73671;BME280;61968;48.178;11.566;2023-06-01T10:26:30;95792.13;;;21.26;26.65
73671;BME280;61968;48.178;11.566;2023-06-01T10:29:00;95790.88;;;21.37;26.48
73671;BME280;61968;48.178;11.566;2023-06-01T10:31:35;95779.72;;;21.44;26.86
73671;BME280;61968;48.178;11.566;2023-06-01T10:34:03;95789.09;;;21.46;26.61
73671;BME280;61968;48.178;11.566;2023-06-01T10:39:35;95785.09;;;21.44;27.52
73671;BME280;61968;48.178;11.566;2023-06-01T10:45:01;95785.72;;;21.54;26.46
73671;BME280;61968;48.178;11.566;2023-06-01T10:47:44;95787.63;;;21.54;26.34
73671;BME280;61968;48.178;11.566;2023-06-01T10:50:14;95774.03;;;21.59;26.07
73671;BME280;61968;48.178;11.566;2023-06-01T10:52:41;95776.53;;;21.56;27.23
73671;BME280;61968;48.178;11.566;2023-06-01T10:55:25;95774.16;;;21.54;27.50
73671;BME280;61968;48.178;11.566;2023-06-01T10:58:21;95782.84;;;21.51;26.44
73671;BME280;61968;48.178;11.566;2023-06-01T11:00:48;95773.75;;;21.61;25.67
73671;BME280;61968;48.178;11.566;2023-06-01T11:03:15;95770.97;;;21.66;27.02
73671;BME280;61968;48.178;11.566;2023-06-01T11:05:44;95774.34;;;21.71;26.21
73671;BME280;61968;48.178;11.566;2023-06-01T11:08:50;95776.41;;;21.74;27.26
73671;BME280;61968;48.178;11.566;2023-06-01T11:11:18;95766.56;;;21.84;25.77
73671;BME280;61968;48.178;11.566;2023-06-01T11:14:05;95766.16;;;21.90;25.87
73671;BME280;61968;48.178;11.566;2023-06-01T11:16:32;95759.84;;;21.95;25.33
73671;BME280;61968;48.178;11.566;2023-06-01T11:19:00;95752.78;;;21.85;24.77
73671;BME280;61968;48.178;11.566;2023-06-01T11:21:29;95752.78;;;21.99;25.65
73671;BME280;61968;48.178;11.566;2023-06-01T11:23:58;95750.69;;;21.96;25.64
73671;BME280;61968;48.178;11.566;2023-06-01T11:26:29;95757.16;;;22.09;25.83
73671;BME280;61968;48.178;11.566;2023-06-01T11:29:14;95753.16;;;22.20;25.37
73671;BME280;61968;48.178;11.566;2023-06-01T11:31:43;95751.31;;;22.29;25.14
73671;BME280;61968;48.178;11.566;2023-06-01T11:34:11;95743.94;;;22.21;24.30
73671;BME280;61968;48.178;11.566;2023-06-01T11:36:41;95741.34;;;22.30;25.23
73671;BME280;61968;48.178;11.566;2023-06-01T11:39:16;95741.34;;;22.30;26.05
73671;BME280;61968;48.178;11.566;2023-06-01T11:41:47;95742.31;;;22.34;25.13
73671;BME280;61968;48.178;11.566;2023-06-01T11:44:14;95732.25;;;22.26;24.71
73671;BME280;61968;48.178;11.566;2023-06-01T11:46:54;95730.31;;;22.40;25.35
73671;BME280;61968;48.178;11.566;2023-06-01T11:49:21;95732.28;;;22.48;25.61
73671;BME280;61968;48.178;11.566;2023-06-01T11:51:48;95726.25;;;22.51;25.20
73671;BME280;61968;48.178;11.566;2023-06-01T11:54:16;95722.25;;;22.62;25.34
73671;BME280;61968;48.178;11.566;2023-06-01T11:56:43;95723.84;;;22.63;24.32
73671;BME280;61968;48.178;11.566;2023-06-01T11:59:12;95720.19;;;22.68;24.58
73671;BME280;61968;48.178;11.566;2023-06-01T12:01:42;95720.88;;;22.74;25.08
73671;BME280;61968;48.178;11.566;2023-06-01T12:04:12;95718.19;;;22.74;25.00
73671;BME280;61968;48.178;11.566;2023-06-01T12:06:38;95715.34;;;22.79;25.57
73671;BME280;61968;48.178;11.566;2023-06-01T12:09:05;95709.34;;;22.82;25.91
73671;BME280;61968;48.178;11.566;2023-06-01T12:11:33;95724.78;;;22.90;25.23
73671;BME280;61968;48.178;11.566;2023-06-01T12:14:00;95712.25;;;22.94;25.51
73671;BME280;61968;48.178;11.566;2023-06-01T12:16:53;95712.25;;;22.94;25.37
73671;BME280;61968;48.178;11.566;2023-06-01T12:19:20;95708.03;;;23.02;24.92
73671;BME280;61968;48.178;11.566;2023-06-01T12:21:48;95713.59;;;23.05;24.42
73671;BME280;61968;48.178;11.566;2023-06-01T12:24:16;95704.91;;;22.86;24.03
73671;BME280;61968;48.178;11.566;2023-06-01T12:26:42;95708.03;;;23.02;24.68
73671;BME280;61968;48.178;11.566;2023-06-01T12:29:09;95698.19;;;23.06;24.20
73671;BME280;61968;48.178;11.566;2023-06-01T12:31:35;95698.34;;;23.09;24.27
73671;BME280;61968;48.178;11.566;2023-06-01T12:34:15;95695.91;;;22.90;24.28
73671;BME280;61968;48.178;11.566;2023-06-01T12:36:41;95688.53;;;23.13;25.00
73671;BME280;61968;48.178;11.566;2023-06-01T12:39:08;95691.88;;;23.19;24.14
73671;BME280;61968;48.178;11.566;2023-06-01T12:41:34;95694.09;;;23.08;23.77
73671;BME280;61968;48.178;11.566;2023-06-01T12:44:01;95696.56;;;23.27;24.52
73671;BME280;61968;48.178;11.566;2023-06-01T12:46:28;95692.28;;;23.44;24.27
73671;BME280;61968;48.178;11.566;2023-06-01T12:49:12;95685.34;;;23.51;24.18
73671;BME280;61968;48.178;11.566;2023-06-01T12:51:39;95683.91;;;23.45;23.16
73671;BME280;61968;48.178;11.566;2023-06-01T12:54:06;95681.50;;;23.35;23.59
73671;BME280;61968;48.178;11.566;2023-06-01T12:56:32;95680.22;;;23.32;22.72
73671;BME280;61968;48.178;11.566;2023-06-01T12:58:59;95678.34;;;23.42;23.12
73671;BME280;61968;48.178;11.566;2023-06-01T13:01:25;95673.09;;;23.45;23.76
73671;BME280;61968;48.178;11.566;2023-06-01T13:03:52;95680.44;;;23.53;24.12